sensor_id;sensor_type;location;lat;lon;timestamp;P1;durP1;ratioP1;P2;durP2;ratioP2
44197;SDS011;30157;55.512;37.764;2023-04-24T00:00:57;37.22;;;13.57;;
44197;SDS011;30157;55.512;37.764;2023-04-24T00:03:24;37.40;;;13.73;;
44197;SDS011;30157;55.512;37.764;2023-04-24T00:05:51;42.15;;;15.20;;
44197;SDS011;30157;55.512;37.764;2023-04-24T00:08:17;42.72;;;15.38;;
44197;SDS011;30157;55.512;37.764;2023-04-24T00:10:44;49.15;;;16.02;;
44197;SDS011;30157;55.512;37.764;2023-04-24T00:13:10;45.17;;;15.05;;
44197;SDS011;30157;55.512;37.764;2023-04-24T00:15:37;36.17;;;12.65;;
44197;SDS011;30157;55.512;37.764;2023-04-24T00:18:02;32.85;;;13.48;;
44197;SDS011;30157;55.512;37.764;2023-04-24T00:20:28;30.08;;;12.80;;
44197;SDS011;30157;55.512;37.764;2023-04-24T00:22:58;41.25;;;13.43;;
44197;SDS011;30157;55.512;37.764;2023-04-24T00:25:24;37.78;;;12.90;;
44197;SDS011;30157;55.512;37.764;2023-04-24T00:27:49;32.00;;;14.63;;
44197;SDS011;30157;55.512;37.764;2023-04-24T00:30:15;33.03;;;12.60;;
44197;SDS011;30157;55.512;37.764;2023-04-24T00:32:41;30.63;;;11.23;;
44197;SDS011;30157;55.512;37.764;2023-04-24T00:35:07;34.50;;;12.02;;
44197;SDS011;30157;55.512;37.764;2023-04-24T00:37:33;30.65;;;11.95;;
44197;SDS011;30157;55.512;37.764;2023-04-24T00:39:59;25.75;;;10.57;;
44197;SDS011;30157;55.512;37.764;2023-04-24T00:42:25;28.40;;;11.27;;
44197;SDS011;30157;55.512;37.764;2023-04-24T00:44:51;25.00;;;10.80;;
44197;SDS011;30157;55.512;37.764;2023-04-24T00:47:17;25.48;;;9.95;;
44197;SDS011;30157;55.512;37.764;2023-04-24T00:49:44;33.45;;;10.48;;
44197;SDS011;30157;55.512;37.764;2023-04-24T00:52:10;25.88;;;9.68;;
44197;SDS011;30157;55.512;37.764;2023-04-24T00:54:37;23.70;;;10.27;;
44197;SDS011;30157;55.512;37.764;2023-04-24T00:57:03;25.58;;;11.15;;
44197;SDS011;30157;55.512;37.764;2023-04-24T00:59:29;29.65;;;10.93;;
44197;SDS011;30157;55.512;37.764;2023-04-24T01:01:56;27.60;;;11.32;;
44197;SDS011;30157;55.512;37.764;2023-04-24T01:04:22;34.25;;;12.32;;
44197;SDS011;30157;55.512;37.764;2023-04-24T01:06:49;33.17;;;11.98;;
44197;SDS011;30157;55.512;37.764;2023-04-24T01:09:16;28.17;;;11.93;;
44197;SDS011;30157;55.512;37.764;2023-04-24T01:11:43;29.45;;;10.80;;
44197;SDS011;30157;55.512;37.764;2023-04-24T01:14:11;30.50;;;11.40;;
44197;SDS011;30157;55.512;37.764;2023-04-24T01:16:37;30.98;;;11.02;;
44197;SDS011;30157;55.512;37.764;2023-04-24T01:19:04;25.02;;;10.25;;
44197;SDS011;30157;55.512;37.764;2023-04-24T01:21:31;25.02;;;10.30;;
44197;SDS011;30157;55.512;37.764;2023-04-24T01:24:02;27.73;;;10.15;;
44197;SDS011;30157;55.512;37.764;2023-04-24T01:26:28;25.55;;;9.65;;
44197;SDS011;30157;55.512;37.764;2023-04-24T01:28:54;28.27;;;10.63;;
44197;SDS011;30157;55.512;37.764;2023-04-24T01:31:21;25.58;;;10.70;;
44197;SDS011;30157;55.512;37.764;2023-04-24T01:33:47;25.40;;;10.00;;
44197;SDS011;30157;55.512;37.764;2023-04-24T01:36:13;21.30;;;10.57;;
44197;SDS011;30157;55.512;37.764;2023-04-24T01:38:39;24.25;;;9.80;;
44197;SDS011;30157;55.512;37.764;2023-04-24T01:41:05;27.25;;;10.77;;
44197;SDS011;30157;55.512;37.764;2023-04-24T01:43:31;25.33;;;10.07;;
44197;SDS011;30157;55.512;37.764;2023-04-24T01:45:57;26.27;;;9.95;;
44197;SDS011;30157;55.512;37.764;2023-04-24T01:48:23;24.95;;;8.82;;
44197;SDS011;30157;55.512;37.764;2023-04-24T01:50:49;21.60;;;9.40;;
44197;SDS011;30157;55.512;37.764;2023-04-24T01:53:15;24.10;;;9.30;;
44197;SDS011;30157;55.512;37.764;2023-04-24T01:55:41;23.95;;;9.73;;
44197;SDS011;30157;55.512;37.764;2023-04-24T01:58:07;27.42;;;10.57;;
44197;SDS011;30157;55.512;37.764;2023-04-24T02:00:33;20.25;;;9.10;;
44197;SDS011;30157;55.512;37.764;2023-04-24T02:02:59;19.75;;;8.85;;
44197;SDS011;30157;55.512;37.764;2023-04-24T02:05:27;20.65;;;9.10;;
44197;SDS011;30157;55.512;37.764;2023-04-24T02:07:55;19.73;;;8.25;;
44197;SDS011;30157;55.512;37.764;2023-04-24T02:10:20;20.52;;;8.65;;
44197;SDS011;30157;55.512;37.764;2023-04-24T02:12:46;22.15;;;9.23;;
44197;SDS011;30157;55.512;37.764;2023-04-24T02:15:12;18.63;;;9.07;;
44197;SDS011;30157;55.512;37.764;2023-04-24T02:17:38;17.55;;;8.60;;
44197;SDS011;30157;55.512;37.764;2023-04-24T02:20:05;20.77;;;8.45;;
44197;SDS011;30157;55.512;37.764;2023-04-24T02:22:32;20.35;;;9.55;;
44197;SDS011;30157;55.512;37.764;2023-04-24T02:25:01;22.45;;;8.63;;
44197;SDS011;30157;55.512;37.764;2023-04-24T02:27:30;20.80;;;9.70;;
44197;SDS011;30157;55.512;37.764;2023-04-24T02:29:56;21.85;;;9.02;;
44197;SDS011;30157;55.512;37.764;2023-04-24T02:32:21;23.10;;;9.00;;
44197;SDS011;30157;55.512;37.764;2023-04-24T02:34:47;19.23;;;8.65;;
44197;SDS011;30157;55.512;37.764;2023-04-24T02:37:13;14.95;;;7.85;;
44197;SDS011;30157;55.512;37.764;2023-04-24T02:39:39;19.30;;;9.50;;
44197;SDS011;30157;55.512;37.764;2023-04-24T02:42:04;24.67;;;9.77;;
44197;SDS011;30157;55.512;37.764;2023-04-24T02:44:30;22.88;;;9.57;;
44197;SDS011;30157;55.512;37.764;2023-04-24T02:46:56;27.67;;;10.45;;
44197;SDS011;30157;55.512;37.764;2023-04-24T02:49:22;25.00;;;11.00;;
44197;SDS011;30157;55.512;37.764;2023-04-24T02:51:48;29.27;;;11.30;;
44197;SDS011;30157;55.512;37.764;2023-04-24T02:54:13;22.00;;;10.82;;
44197;SDS011;30157;55.512;37.764;2023-04-24T02:56:39;25.85;;;10.60;;
44197;SDS011;30157;55.512;37.764;2023-04-24T02:59:06;20.27;;;9.63;;
44197;SDS011;30157;55.512;37.764;2023-04-24T03:01:32;21.98;;;9.20;;
44197;SDS011;30157;55.512;37.764;2023-04-24T03:03:58;17.52;;;9.10;;
44197;SDS011;30157;55.512;37.764;2023-04-24T03:06:24;21.00;;;9.55;;
44197;SDS011;30157;55.512;37.764;2023-04-24T03:08:52;19.75;;;8.93;;
44197;SDS011;30157;55.512;37.764;2023-04-24T03:11:18;19.92;;;8.90;;
44197;SDS011;30157;55.512;37.764;2023-04-24T03:13:45;14.90;;;8.00;;
44197;SDS011;30157;55.512;37.764;2023-04-24T03:16:10;14.25;;;7.43;;
44197;SDS011;30157;55.512;37.764;2023-04-24T03:18:36;15.20;;;8.23;;
44197;SDS011;30157;55.512;37.764;2023-04-24T03:21:03;14.93;;;7.72;;
44197;SDS011;30157;55.512;37.764;2023-04-24T03:23:29;16.08;;;8.15;;
44197;SDS011;30157;55.512;37.764;2023-04-24T03:25:55;24.15;;;8.60;;
44197;SDS011;30157;55.512;37.764;2023-04-24T03:28:21;16.25;;;8.30;;
44197;SDS011;30157;55.512;37.764;2023-04-24T03:30:59;17.30;;;8.90;;
44197;SDS011;30157;55.512;37.764;2023-04-24T03:33:29;15.10;;;8.50;;
44197;SDS011;30157;55.512;37.764;2023-04-24T03:35:59;16.45;;;8.00;;
44197;SDS011;30157;55.512;37.764;2023-04-24T03:38:27;16.92;;;8.60;;
44197;SDS011;30157;55.512;37.764;2023-04-24T03:40:53;16.27;;;7.80;;
44197;SDS011;30157;55.512;37.764;2023-04-24T03:43:45;13.63;;;7.53;;
44197;SDS011;30157;55.512;37.764;2023-04-24T03:46:11;13.35;;;7.65;;
44197;SDS011;30157;55.512;37.764;2023-04-24T03:48:41;13.63;;;8.23;;
44197;SDS011;30157;55.512;37.764;2023-04-24T03:51:08;15.98;;;7.95;;
44197;SDS011;30157;55.512;37.764;2023-04-24T03:53:36;15.27;;;7.75;;
44197;SDS011;30157;55.512;37.764;2023-04-24T03:56:02;14.25;;;8.40;;
44197;SDS011;30157;55.512;37.764;2023-04-24T03:58:30;12.88;;;8.15;;
44197;SDS011;30157;55.512;37.764;2023-04-24T04:00:56;15.65;;;8.60;;
44197;SDS011;30157;55.512;37.764;2023-04-24T04:03:51;13.27;;;8.45;;
44197;SDS011;30157;55.512;37.764;2023-04-24T04:06:20;14.60;;;9.13;;
44197;SDS011;30157;55.512;37.764;2023-04-24T04:08:47;18.13;;;10.50;;
44197;SDS011;30157;55.512;37.764;2023-04-24T04:11:13;18.02;;;9.70;;
44197;SDS011;30157;55.512;37.764;2023-04-24T04:13:39;16.10;;;9.23;;
44197;SDS011;30157;55.512;37.764;2023-04-24T04:16:05;20.40;;;10.50;;
44197;SDS011;30157;55.512;37.764;2023-04-24T04:18:31;19.95;;;10.27;;
44197;SDS011;30157;55.512;37.764;2023-04-24T04:20:57;23.58;;;10.82;;
44197;SDS011;30157;55.512;37.764;2023-04-24T04:23:23;20.42;;;10.88;;
44197;SDS011;30157;55.512;37.764;2023-04-24T04:26:03;22.30;;;10.82;;
44197;SDS011;30157;55.512;37.764;2023-04-24T04:28:42;26.08;;;10.88;;
44197;SDS011;30157;55.512;37.764;2023-04-24T04:31:09;21.17;;;11.27;;
44197;SDS011;30157;55.512;37.764;2023-04-24T04:33:35;22.05;;;11.00;;
44197;SDS011;30157;55.512;37.764;2023-04-24T04:36:05;25.70;;;11.32;;
44197;SDS011;30157;55.512;37.764;2023-04-24T04:38:33;23.42;;;12.25;;
44197;SDS011;30157;55.512;37.764;2023-04-24T04:41:09;16.83;;;10.00;;
44197;SDS011;30157;55.512;37.764;2023-04-24T04:43:36;18.17;;;9.95;;
44197;SDS011;30157;55.512;37.764;2023-04-24T04:46:03;20.63;;;10.95;;
44197;SDS011;30157;55.512;37.764;2023-04-24T04:48:43;20.15;;;11.73;;
44197;SDS011;30157;55.512;37.764;2023-04-24T04:51:09;18.85;;;10.38;;
44197;SDS011;30157;55.512;37.764;2023-04-24T04:53:35;23.13;;;11.38;;
44197;SDS011;30157;55.512;37.764;2023-04-24T04:56:01;21.02;;;11.43;;
44197;SDS011;30157;55.512;37.764;2023-04-24T04:58:40;17.58;;;10.48;;
44197;SDS011;30157;55.512;37.764;2023-04-24T05:01:09;17.13;;;10.30;;
44197;SDS011;30157;55.512;37.764;2023-04-24T05:03:40;18.88;;;9.65;;
44197;SDS011;30157;55.512;37.764;2023-04-24T05:06:09;22.35;;;11.10;;
44197;SDS011;30157;55.512;37.764;2023-04-24T05:08:37;22.23;;;10.35;;
44197;SDS011;30157;55.512;37.764;2023-04-24T05:11:06;22.10;;;10.70;;
44197;SDS011;30157;55.512;37.764;2023-04-24T05:13:32;14.07;;;8.43;;
44197;SDS011;30157;55.512;37.764;2023-04-24T05:15:59;13.88;;;9.20;;
44197;SDS011;30157;55.512;37.764;2023-04-24T05:18:26;16.77;;;9.00;;
44197;SDS011;30157;55.512;37.764;2023-04-24T05:20:52;23.27;;;9.55;;
44197;SDS011;30157;55.512;37.764;2023-04-24T05:23:19;21.98;;;9.07;;
44197;SDS011;30157;55.512;37.764;2023-04-24T05:25:50;15.82;;;8.80;;
44197;SDS011;30157;55.512;37.764;2023-04-24T05:28:16;17.35;;;9.98;;
44197;SDS011;30157;55.512;37.764;2023-04-24T05:30:46;14.32;;;8.73;;
44197;SDS011;30157;55.512;37.764;2023-04-24T05:33:13;15.70;;;8.77;;
44197;SDS011;30157;55.512;37.764;2023-04-24T05:35:40;17.98;;;8.40;;
44197;SDS011;30157;55.512;37.764;2023-04-24T05:38:11;13.52;;;7.57;;
44197;SDS011;30157;55.512;37.764;2023-04-24T05:40:38;13.77;;;6.85;;
44197;SDS011;30157;55.512;37.764;2023-04-24T05:43:04;8.35;;;5.85;;
44197;SDS011;30157;55.512;37.764;2023-04-24T05:45:30;9.90;;;5.57;;
44197;SDS011;30157;55.512;37.764;2023-04-24T05:47:57;7.03;;;5.30;;
44197;SDS011;30157;55.512;37.764;2023-04-24T05:50:22;28.95;;;6.28;;
44197;SDS011;30157;55.512;37.764;2023-04-24T05:52:48;8.10;;;5.40;;
44197;SDS011;30157;55.512;37.764;2023-04-24T05:55:24;7.95;;;5.50;;
44197;SDS011;30157;55.512;37.764;2023-04-24T05:57:52;8.48;;;5.50;;
44197;SDS011;30157;55.512;37.764;2023-04-24T06:00:19;8.95;;;5.70;;
44197;SDS011;30157;55.512;37.764;2023-04-24T06:02:52;7.18;;;4.97;;
44197;SDS011;30157;55.512;37.764;2023-04-24T06:05:20;8.02;;;5.05;;
44197;SDS011;30157;55.512;37.764;2023-04-24T06:07:46;7.20;;;4.65;;
44197;SDS011;30157;55.512;37.764;2023-04-24T06:10:11;7.13;;;5.20;;
44197;SDS011;30157;55.512;37.764;2023-04-24T06:12:41;7.35;;;4.93;;
44197;SDS011;30157;55.512;37.764;2023-04-24T06:15:13;8.98;;;5.07;;
44197;SDS011;30157;55.512;37.764;2023-04-24T06:18:00;7.13;;;4.75;;
44197;SDS011;30157;55.512;37.764;2023-04-24T06:20:26;6.45;;;4.60;;
44197;SDS011;30157;55.512;37.764;2023-04-24T06:22:52;7.43;;;4.85;;
44197;SDS011;30157;55.512;37.764;2023-04-24T06:25:18;7.15;;;5.25;;
44197;SDS011;30157;55.512;37.764;2023-04-24T06:27:44;5.97;;;4.50;;
44197;SDS011;30157;55.512;37.764;2023-04-24T06:30:10;7.78;;;5.32;;
44197;SDS011;30157;55.512;37.764;2023-04-24T06:32:37;7.97;;;4.75;;
44197;SDS011;30157;55.512;37.764;2023-04-24T06:35:03;7.55;;;4.50;;
44197;SDS011;30157;55.512;37.764;2023-04-24T06:37:30;5.70;;;3.70;;
44197;SDS011;30157;55.512;37.764;2023-04-24T06:39:55;6.95;;;4.43;;
44197;SDS011;30157;55.512;37.764;2023-04-24T06:42:21;9.20;;;5.07;;
44197;SDS011;30157;55.512;37.764;2023-04-24T06:44:49;6.32;;;4.57;;
44197;SDS011;30157;55.512;37.764;2023-04-24T06:47:15;7.13;;;4.30;;
44197;SDS011;30157;55.512;37.764;2023-04-24T06:49:41;6.00;;;3.60;;
44197;SDS011;30157;55.512;37.764;2023-04-24T06:52:07;7.53;;;4.55;;
44197;SDS011;30157;55.512;37.764;2023-04-24T06:54:33;7.78;;;4.80;;
44197;SDS011;30157;55.512;37.764;2023-04-24T06:56:59;7.38;;;4.35;;
44197;SDS011;30157;55.512;37.764;2023-04-24T06:59:29;6.65;;;4.53;;
44197;SDS011;30157;55.512;37.764;2023-04-24T07:01:55;6.82;;;4.93;;
44197;SDS011;30157;55.512;37.764;2023-04-24T07:04:21;7.65;;;4.38;;
44197;SDS011;30157;55.512;37.764;2023-04-24T07:06:47;5.78;;;3.78;;
44197;SDS011;30157;55.512;37.764;2023-04-24T07:09:14;5.05;;;3.97;;
44197;SDS011;30157;55.512;37.764;2023-04-24T07:11:44;5.95;;;4.10;;
44197;SDS011;30157;55.512;37.764;2023-04-24T07:14:11;6.30;;;4.10;;
44197;SDS011;30157;55.512;37.764;2023-04-24T07:16:37;6.03;;;4.00;;
44197;SDS011;30157;55.512;37.764;2023-04-24T07:19:03;5.20;;;3.35;;
44197;SDS011;30157;55.512;37.764;2023-04-24T07:21:29;5.35;;;3.65;;
44197;SDS011;30157;55.512;37.764;2023-04-24T07:23:57;6.32;;;4.18;;
44197;SDS011;30157;55.512;37.764;2023-04-24T07:26:23;7.80;;;3.78;;
44197;SDS011;30157;55.512;37.764;2023-04-24T07:28:50;4.60;;;3.30;;
44197;SDS011;30157;55.512;37.764;2023-04-24T07:31:16;6.70;;;4.22;;
44197;SDS011;30157;55.512;37.764;2023-04-24T07:33:42;5.63;;;3.72;;
44197;SDS011;30157;55.512;37.764;2023-04-24T07:36:07;5.57;;;3.97;;
44197;SDS011;30157;55.512;37.764;2023-04-24T07:38:33;6.13;;;4.15;;
44197;SDS011;30157;55.512;37.764;2023-04-24T07:40:59;6.00;;;4.65;;
44197;SDS011;30157;55.512;37.764;2023-04-24T07:43:25;5.03;;;4.18;;
44197;SDS011;30157;55.512;37.764;2023-04-24T07:45:51;5.63;;;4.00;;
44197;SDS011;30157;55.512;37.764;2023-04-24T07:48:16;5.45;;;4.10;;
44197;SDS011;30157;55.512;37.764;2023-04-24T07:50:43;4.75;;;3.60;;
44197;SDS011;30157;55.512;37.764;2023-04-24T07:53:10;7.72;;;4.50;;
44197;SDS011;30157;55.512;37.764;2023-04-24T07:55:36;7.45;;;4.43;;
44197;SDS011;30157;55.512;37.764;2023-04-24T07:58:02;8.65;;;4.40;;
44197;SDS011;30157;55.512;37.764;2023-04-24T08:00:28;8.07;;;3.97;;
44197;SDS011;30157;55.512;37.764;2023-04-24T08:02:53;9.43;;;4.68;;
44197;SDS011;30157;55.512;37.764;2023-04-24T08:05:19;6.65;;;4.95;;
44197;SDS011;30157;55.512;37.764;2023-04-24T08:07:45;5.55;;;4.25;;
44197;SDS011;30157;55.512;37.764;2023-04-24T08:10:14;6.90;;;4.45;;
44197;SDS011;30157;55.512;37.764;2023-04-24T08:12:40;8.98;;;4.95;;
44197;SDS011;30157;55.512;37.764;2023-04-24T08:15:07;6.03;;;4.32;;
44197;SDS011;30157;55.512;37.764;2023-04-24T08:17:36;5.55;;;3.70;;
44197;SDS011;30157;55.512;37.764;2023-04-24T08:20:03;6.70;;;3.58;;
44197;SDS011;30157;55.512;37.764;2023-04-24T08:22:32;5.03;;;3.88;;
44197;SDS011;30157;55.512;37.764;2023-04-24T08:24:59;5.97;;;4.25;;
44197;SDS011;30157;55.512;37.764;2023-04-24T08:27:25;5.45;;;3.97;;
44197;SDS011;30157;55.512;37.764;2023-04-24T08:29:52;4.78;;;4.00;;
44197;SDS011;30157;55.512;37.764;2023-04-24T08:32:19;5.72;;;3.63;;
44197;SDS011;30157;55.512;37.764;2023-04-24T08:34:45;7.88;;;4.15;;
44197;SDS011;30157;55.512;37.764;2023-04-24T08:37:10;7.05;;;4.80;;
44197;SDS011;30157;55.512;37.764;2023-04-24T08:39:37;6.43;;;4.10;;
44197;SDS011;30157;55.512;37.764;2023-04-24T08:42:03;6.32;;;3.75;;
44197;SDS011;30157;55.512;37.764;2023-04-24T08:44:33;5.75;;;3.83;;
44197;SDS011;30157;55.512;37.764;2023-04-24T08:47:03;5.93;;;4.10;;
44197;SDS011;30157;55.512;37.764;2023-04-24T08:49:30;5.13;;;4.22;;
44197;SDS011;30157;55.512;37.764;2023-04-24T08:51:56;4.78;;;3.80;;
44197;SDS011;30157;55.512;37.764;2023-04-24T08:54:23;4.85;;;3.72;;
44197;SDS011;30157;55.512;37.764;2023-04-24T08:56:50;5.13;;;3.45;;
44197;SDS011;30157;55.512;37.764;2023-04-24T08:59:18;4.82;;;4.05;;
44197;SDS011;30157;55.512;37.764;2023-04-24T09:01:46;7.63;;;4.20;;
44197;SDS011;30157;55.512;37.764;2023-04-24T09:04:13;5.03;;;3.78;;
44197;SDS011;30157;55.512;37.764;2023-04-24T09:06:41;5.68;;;3.97;;
44197;SDS011;30157;55.512;37.764;2023-04-24T09:09:07;12.10;;;4.70;;
44197;SDS011;30157;55.512;37.764;2023-04-24T09:11:35;6.15;;;4.32;;
44197;SDS011;30157;55.512;37.764;2023-04-24T09:14:02;5.70;;;3.60;;
44197;SDS011;30157;55.512;37.764;2023-04-24T09:16:28;4.78;;;3.60;;
44197;SDS011;30157;55.512;37.764;2023-04-24T09:18:55;4.22;;;2.80;;
44197;SDS011;30157;55.512;37.764;2023-04-24T09:21:21;6.03;;;4.00;;
44197;SDS011;30157;55.512;37.764;2023-04-24T09:23:57;7.07;;;3.97;;
44197;SDS011;30157;55.512;37.764;2023-04-24T09:26:24;6.78;;;4.00;;
44197;SDS011;30157;55.512;37.764;2023-04-24T09:28:50;5.45;;;4.00;;
44197;SDS011;30157;55.512;37.764;2023-04-24T09:31:17;4.60;;;3.42;;
44197;SDS011;30157;55.512;37.764;2023-04-24T09:33:56;3.78;;;3.38;;
44197;SDS011;30157;55.512;37.764;2023-04-24T09:36:29;4.05;;;3.50;;
44197;SDS011;30157;55.512;37.764;2023-04-24T09:39:03;4.47;;;3.67;;
44197;SDS011;30157;55.512;37.764;2023-04-24T09:41:31;5.90;;;3.72;;
44197;SDS011;30157;55.512;37.764;2023-04-24T09:43:58;4.57;;;3.60;;
44197;SDS011;30157;55.512;37.764;2023-04-24T09:46:36;4.13;;;3.38;;
44197;SDS011;30157;55.512;37.764;2023-04-24T09:49:09;3.70;;;3.30;;
44197;SDS011;30157;55.512;37.764;2023-04-24T09:51:37;4.88;;;3.97;;
44197;SDS011;30157;55.512;37.764;2023-04-24T09:54:24;5.53;;;3.05;;
44197;SDS011;30157;55.512;37.764;2023-04-24T09:56:51;4.85;;;3.40;;
44197;SDS011;30157;55.512;37.764;2023-04-24T09:59:17;4.43;;;2.92;;
44197;SDS011;30157;55.512;37.764;2023-04-24T10:01:44;3.97;;;3.13;;
44197;SDS011;30157;55.512;37.764;2023-04-24T10:04:23;4.78;;;3.78;;
44197;SDS011;30157;55.512;37.764;2023-04-24T10:06:51;3.90;;;3.10;;
44197;SDS011;30157;55.512;37.764;2023-04-24T10:09:22;4.70;;;3.58;;
44197;SDS011;30157;55.512;37.764;2023-04-24T10:11:50;5.25;;;3.75;;
44197;SDS011;30157;55.512;37.764;2023-04-24T10:14:22;5.63;;;3.80;;
44197;SDS011;30157;55.512;37.764;2023-04-24T10:16:49;3.90;;;3.10;;
44197;SDS011;30157;55.512;37.764;2023-04-24T10:19:16;3.67;;;2.80;;
44197;SDS011;30157;55.512;37.764;2023-04-24T10:21:45;3.55;;;3.22;;
44197;SDS011;30157;55.512;37.764;2023-04-24T10:24:13;4.00;;;3.20;;
44197;SDS011;30157;55.512;37.764;2023-04-24T10:26:40;4.18;;;3.40;;
44197;SDS011;30157;55.512;37.764;2023-04-24T10:29:06;3.95;;;2.95;;
44197;SDS011;30157;55.512;37.764;2023-04-24T10:31:37;4.75;;;3.15;;
44197;SDS011;30157;55.512;37.764;2023-04-24T10:34:06;6.45;;;2.90;;
44197;SDS011;30157;55.512;37.764;2023-04-24T10:36:34;4.35;;;3.13;;
44197;SDS011;30157;55.512;37.764;2023-04-24T10:39:02;3.67;;;2.95;;
44197;SDS011;30157;55.512;37.764;2023-04-24T10:41:31;3.58;;;2.63;;
44197;SDS011;30157;55.512;37.764;2023-04-24T10:46:37;3.33;;;2.80;;
44197;SDS011;30157;55.512;37.764;2023-04-24T10:49:06;2.38;;;2.17;;
44197;SDS011;30157;55.512;37.764;2023-04-24T10:51:53;5.50;;;2.90;;
44197;SDS011;30157;55.512;37.764;2023-04-24T10:54:26;4.82;;;2.83;;
44197;SDS011;30157;55.512;37.764;2023-04-24T10:57:25;4.55;;;3.03;;
44197;SDS011;30157;55.512;37.764;2023-04-24T10:59:51;4.07;;;3.10;;
44197;SDS011;30157;55.512;37.764;2023-04-24T11:02:38;3.92;;;3.15;;
44197;SDS011;30157;55.512;37.764;2023-04-24T11:05:06;2.90;;;2.58;;
44197;SDS011;30157;55.512;37.764;2023-04-24T11:08:09;3.53;;;2.58;;
44197;SDS011;30157;55.512;37.764;2023-04-24T11:10:45;4.40;;;3.20;;
44197;SDS011;30157;55.512;37.764;2023-04-24T11:13:20;4.47;;;3.40;;
44197;SDS011;30157;55.512;37.764;2023-04-24T11:18:44;5.40;;;3.47;;
44197;SDS011;30157;55.512;37.764;2023-04-24T11:21:17;4.80;;;3.45;;
44197;SDS011;30157;55.512;37.764;2023-04-24T11:23:44;4.50;;;3.08;;
44197;SDS011;30157;55.512;37.764;2023-04-24T11:26:17;4.88;;;2.97;;
44197;SDS011;30157;55.512;37.764;2023-04-24T11:28:49;4.30;;;2.78;;
44197;SDS011;30157;55.512;37.764;2023-04-24T11:31:34;3.85;;;2.88;;
44197;SDS011;30157;55.512;37.764;2023-04-24T11:34:11;3.88;;;3.15;;
44197;SDS011;30157;55.512;37.764;2023-04-24T11:36:39;4.15;;;3.10;;
44197;SDS011;30157;55.512;37.764;2023-04-24T11:39:07;8.80;;;3.17;;
44197;SDS011;30157;55.512;37.764;2023-04-24T11:41:33;4.25;;;3.20;;
44197;SDS011;30157;55.512;37.764;2023-04-24T11:44:00;4.93;;;3.50;;
44197;SDS011;30157;55.512;37.764;2023-04-24T11:46:29;5.32;;;3.75;;
44197;SDS011;30157;55.512;37.764;2023-04-24T11:48:57;4.03;;;2.65;;
44197;SDS011;30157;55.512;37.764;2023-04-24T11:51:24;3.70;;;2.92;;
44197;SDS011;30157;55.512;37.764;2023-04-24T11:53:55;3.30;;;2.80;;
44197;SDS011;30157;55.512;37.764;2023-04-24T11:56:22;3.28;;;2.47;;
44197;SDS011;30157;55.512;37.764;2023-04-24T11:58:54;3.60;;;3.08;;
44197;SDS011;30157;55.512;37.764;2023-04-24T12:01:20;3.50;;;2.88;;
44197;SDS011;30157;55.512;37.764;2023-04-24T12:03:49;3.63;;;2.90;;
44197;SDS011;30157;55.512;37.764;2023-04-24T12:06:16;3.80;;;2.78;;
44197;SDS011;30157;55.512;37.764;2023-04-24T12:08:45;6.75;;;2.78;;
44197;SDS011;30157;55.512;37.764;2023-04-24T12:11:14;3.88;;;2.97;;
44197;SDS011;30157;55.512;37.764;2023-04-24T12:13:41;3.15;;;2.63;;
44197;SDS011;30157;55.512;37.764;2023-04-24T12:16:07;5.45;;;2.90;;
44197;SDS011;30157;55.512;37.764;2023-04-24T12:18:33;3.15;;;2.60;;
44197;SDS011;30157;55.512;37.764;2023-04-24T12:21:14;2.92;;;2.50;;
44197;SDS011;30157;55.512;37.764;2023-04-24T12:23:42;4.88;;;3.10;;
44197;SDS011;30157;55.512;37.764;2023-04-24T12:26:10;6.13;;;3.08;;
44197;SDS011;30157;55.512;37.764;2023-04-24T12:28:36;3.30;;;2.90;;
44197;SDS011;30157;55.512;37.764;2023-04-24T12:31:03;4.55;;;3.05;;
44197;SDS011;30157;55.512;37.764;2023-04-24T12:33:34;5.03;;;3.30;;
44197;SDS011;30157;55.512;37.764;2023-04-24T12:36:01;4.22;;;3.03;;
44197;SDS011;30157;55.512;37.764;2023-04-24T12:38:27;5.38;;;2.60;;
44197;SDS011;30157;55.512;37.764;2023-04-24T12:41:06;3.78;;;2.80;;
44197;SDS011;30157;55.512;37.764;2023-04-24T12:43:32;6.70;;;2.60;;
44197;SDS011;30157;55.512;37.764;2023-04-24T12:45:58;5.90;;;2.85;;
44197;SDS011;30157;55.512;37.764;2023-04-24T12:48:27;6.50;;;3.03;;
44197;SDS011;30157;55.512;37.764;2023-04-24T12:50:54;3.78;;;2.10;;
44197;SDS011;30157;55.512;37.764;2023-04-24T12:53:21;3.92;;;2.97;;
44197;SDS011;30157;55.512;37.764;2023-04-24T12:55:47;3.35;;;2.55;;
44197;SDS011;30157;55.512;37.764;2023-04-24T12:58:20;3.47;;;2.60;;
44197;SDS011;30157;55.512;37.764;2023-04-24T13:00:47;3.30;;;2.88;;
44197;SDS011;30157;55.512;37.764;2023-04-24T13:03:13;4.45;;;2.53;;
44197;SDS011;30157;55.512;37.764;2023-04-24T13:05:39;5.30;;;2.90;;
44197;SDS011;30157;55.512;37.764;2023-04-24T13:08:05;5.65;;;3.28;;
44197;SDS011;30157;55.512;37.764;2023-04-24T13:10:31;6.40;;;2.90;;
44197;SDS011;30157;55.512;37.764;2023-04-24T13:12:57;5.65;;;3.08;;
44197;SDS011;30157;55.512;37.764;2023-04-24T13:15:22;4.10;;;2.95;;
44197;SDS011;30157;55.512;37.764;2023-04-24T13:17:49;4.40;;;2.90;;
44197;SDS011;30157;55.512;37.764;2023-04-24T13:20:15;4.05;;;2.78;;
44197;SDS011;30157;55.512;37.764;2023-04-24T13:22:41;4.72;;;3.03;;
44197;SDS011;30157;55.512;37.764;2023-04-24T13:25:07;4.05;;;2.90;;
44197;SDS011;30157;55.512;37.764;2023-04-24T13:27:34;3.72;;;2.70;;
44197;SDS011;30157;55.512;37.764;2023-04-24T13:30:00;5.82;;;3.00;;
44197;SDS011;30157;55.512;37.764;2023-04-24T13:32:25;4.75;;;3.13;;
44197;SDS011;30157;55.512;37.764;2023-04-24T13:34:53;5.80;;;2.70;;
44197;SDS011;30157;55.512;37.764;2023-04-24T13:37:19;2.80;;;2.45;;
44197;SDS011;30157;55.512;37.764;2023-04-24T13:39:45;8.40;;;3.58;;
44197;SDS011;30157;55.512;37.764;2023-04-24T13:42:11;6.28;;;3.53;;
44197;SDS011;30157;55.512;37.764;2023-04-24T13:44:36;5.85;;;3.20;;
44197;SDS011;30157;55.512;37.764;2023-04-24T13:47:05;5.07;;;2.80;;
44197;SDS011;30157;55.512;37.764;2023-04-24T13:49:31;5.03;;;2.92;;
44197;SDS011;30157;55.512;37.764;2023-04-24T13:51:57;4.80;;;2.92;;
44197;SDS011;30157;55.512;37.764;2023-04-24T13:54:23;4.07;;;3.08;;
44197;SDS011;30157;55.512;37.764;2023-04-24T13:56:51;8.45;;;4.55;;
44197;SDS011;30157;55.512;37.764;2023-04-24T13:59:17;2.88;;;2.45;;
44197;SDS011;30157;55.512;37.764;2023-04-24T14:01:44;5.20;;;2.88;;
44197;SDS011;30157;55.512;37.764;2023-04-24T14:04:10;9.18;;;3.03;;
44197;SDS011;30157;55.512;37.764;2023-04-24T14:06:36;5.35;;;3.00;;
44197;SDS011;30157;55.512;37.764;2023-04-24T14:09:02;13.60;;;6.47;;
44197;SDS011;30157;55.512;37.764;2023-04-24T14:11:28;7.53;;;3.97;;
44197;SDS011;30157;55.512;37.764;2023-04-24T14:13:54;7.07;;;4.50;;
44197;SDS011;30157;55.512;37.764;2023-04-24T14:16:21;5.55;;;3.50;;
44197;SDS011;30157;55.512;37.764;2023-04-24T14:18:47;4.55;;;3.00;;
44197;SDS011;30157;55.512;37.764;2023-04-24T14:21:13;6.03;;;3.60;;
44197;SDS011;30157;55.512;37.764;2023-04-24T14:23:39;6.07;;;3.08;;
44197;SDS011;30157;55.512;37.764;2023-04-24T14:26:04;6.88;;;3.20;;
44197;SDS011;30157;55.512;37.764;2023-04-24T14:28:30;6.05;;;3.60;;
44197;SDS011;30157;55.512;37.764;2023-04-24T14:30:56;11.50;;;3.25;;
44197;SDS011;30157;55.512;37.764;2023-04-24T14:33:22;5.32;;;3.42;;
44197;SDS011;30157;55.512;37.764;2023-04-24T14:35:47;6.10;;;3.28;;